Terminal Aerodrome Forecast
Issued by NWS

Home | Current Version | Previous Version | Text Only | Print | Product List | Glossary On
Versions: 1 2 3 4 5 6 7 8 9 10 11 12 13 14 15 16 17 18 19 20 21 22 23 24 25 26 27 28
210
FTUS43 KSGF 252337
TAFBBG
TAF
KBBG 252337Z 2600/2624 16005KT P6SM SCT035
     FM260700 15005KT 6SM BR BKN015
     FM260900 15005KT 4SM BR BKN007 OVC015
     FM261500 18007KT P6SM BKN015
     FM261700 16010KT P6SM SCT020 BKN035 PROB30 2618/2624 -TSRA
      BKN035CB=

USA.gov is the U.S. government's official web portal to all federal, state and local government web resources and services.